CheckWX is a tool to help pilots better visualize weather data.  It is not intended as a substitute for an official pre-flight weather briefing.

08:48:58 UTC

KEHR METAR
Henderson City-County Airport
Henderson, Kentucky, USA
Current

53 mins ago

KEHR 220756Z AUTO 04010KT 10SM CLR 05/01 A3026 RMK AO2 SLP260 T00500006
Observed
Feb-22 @ 07:56 UTC
Wind
  • 040° at 10 KTS
Visibility
10 SM
Flight Rules
VFR
Cloud Levels
  • Clear skies
Temperature
C / 41°F
Dewpoint
C / 34°F
Humidity
76%
Altimeter
30.26" Hg
Pressure
1026 hPa
Previous

2 hours ago

KEHR 220656Z AUTO 02009KT 10SM CLR 04/01 A3027 RMK AO2 SLP261 T00440011
Observed
Feb-22 @ 06:56 UTC
Wind
  • 020° at 9 KTS
Visibility
10 SM
Flight Rules
VFR
Cloud Levels
  • Clear skies
Temperature
C / 39°F
Dewpoint
C / 34°F
Humidity
81%
Altimeter
30.27" Hg
Pressure
1026.1 hPa
Previous

3 hours ago

KEHR 220556Z AUTO 05010KT 10SM CLR 05/01 A3024 RMK AO2 RAB28E39 SLP254 P0000 60000 T00500006 10056 20050 400611017 55009
Observed
Feb-22 @ 05:56 UTC
Wind
  • 050° at 10 KTS
Visibility
10 SM
Flight Rules
VFR
Cloud Levels
  • Clear skies
Temperature
C / 41°F
Dewpoint
C / 34°F
Humidity
76%
Altimeter
30.24" Hg
Pressure
1025.4 hPa
Current Rain
0.01"